createdAt,value
2022-11-07T00:01:58.581Z,100682.28
2022-11-07T00:04:28.531Z,100692.38
2022-11-07T00:06:55.491Z,100687.50
2022-11-07T00:09:22.228Z,100688.25
2022-11-07T00:11:51.707Z,100690.13
2022-11-07T00:14:18.727Z,100681.16
2022-11-07T00:16:46.854Z,100689.03
2022-11-07T00:19:18.634Z,100692.03
2022-11-07T00:21:45.602Z,100700.66
2022-11-07T00:24:12.685Z,100699.13
2022-11-07T00:26:39.195Z,100702.13
2022-11-07T00:29:06.511Z,100704.75
2022-11-07T00:31:33.191Z,100700.22
2022-11-07T00:33:59.737Z,100706.25
2022-11-07T00:36:28.586Z,100706.63
2022-11-07T00:38:55.768Z,100704.34
2022-11-07T00:41:25.297Z,100712.25
2022-11-07T00:43:54.733Z,100712.25
2022-11-07T00:46:21.810Z,100705.84
2022-11-07T00:48:51.729Z,100711.84
2022-11-07T00:51:24.631Z,100718.22
2022-11-07T00:53:51.930Z,100718.94
2022-11-07T00:56:21.762Z,100715.94
2022-11-07T00:58:51.091Z,100722.34
2022-11-07T01:01:20.196Z,100718.97
2022-11-07T01:04:05.949Z,100715.25
2022-11-07T01:06:35.022Z,100720.09
2022-11-07T01:09:01.637Z,100719.34
2022-11-07T01:11:29.999Z,100726.16
2022-11-07T01:14:00.629Z,100723.13
2022-11-07T01:16:28.622Z,100729.84
2022-11-07T01:18:55.395Z,100736.53
2022-11-07T01:21:22.196Z,100742.25
2022-11-07T01:23:51.817Z,100731.38
2022-11-07T01:26:18.777Z,100739.28
2022-11-07T01:28:45.392Z,100748.25
2022-11-07T01:31:14.771Z,100757.94
2022-11-07T01:33:41.820Z,100762.06
2022-11-07T01:36:12.226Z,100752.31
2022-11-07T01:38:40.724Z,100747.81
2022-11-07T01:41:22.300Z,100763.47
2022-11-07T01:44:06.914Z,100754.19
2022-11-07T01:46:40.415Z,100753.41
2022-11-07T01:49:35.007Z,100755.97
2022-11-07T01:52:08.463Z,100765.81
2022-11-07T01:54:44.041Z,100759.75
2022-11-07T01:57:17.869Z,100762.78
2022-11-07T01:59:44.459Z,100767.31
2022-11-07T02:02:11.102Z,100769.53
2022-11-07T02:04:37.949Z,100771.00
2022-11-07T02:07:22.885Z,100768.03
2022-11-07T02:09:54.608Z,100773.31
2022-11-07T02:12:23.976Z,100775.19
2022-11-07T02:14:50.781Z,100773.72
2022-11-07T02:17:18.138Z,100772.16
2022-11-07T02:19:53.849Z,100779.31
2022-11-07T02:22:26.171Z,100771.03
2022-11-07T02:24:56.839Z,100774.41
2022-11-07T02:27:27.224Z,100774.81
2022-11-07T02:30:08.036Z,100775.59
2022-11-07T02:32:34.543Z,100782.66
2022-11-07T02:35:04.761Z,100768.84
2022-11-07T02:37:35.940Z,100774.44
2022-11-07T02:40:06.333Z,100776.28
2022-11-07T02:42:45.646Z,100777.41
2022-11-07T02:45:18.353Z,100773.31
2022-11-07T02:47:45.172Z,100774.47
2022-11-07T02:50:14.081Z,100774.44
2022-11-07T02:52:41.549Z,100772.59
2022-11-07T02:55:09.059Z,100774.06
2022-11-07T02:57:35.626Z,100770.72
2022-11-07T03:00:02.085Z,100765.06
2022-11-07T03:02:29.041Z,100772.56
2022-11-07T03:04:55.660Z,100774.81
2022-11-07T03:07:22.166Z,100773.72
2022-11-07T03:09:51.589Z,100766.19
2022-11-07T03:12:18.832Z,100774.81
2022-11-07T03:14:45.376Z,100770.31
2022-11-07T03:17:11.958Z,100768.03
2022-11-07T03:19:38.452Z,100781.88
2022-11-07T03:22:04.935Z,100775.53
2022-11-07T03:24:32.552Z,100778.53
2022-11-07T03:27:02.079Z,100778.53
2022-11-07T03:29:28.562Z,100777.84
2022-11-07T03:31:55.033Z,100787.59
2022-11-07T03:34:21.632Z,100796.53
2022-11-07T03:36:48.898Z,100783.41
2022-11-07T03:39:15.372Z,100785.34
2022-11-07T03:41:41.874Z,100792.06
2022-11-07T03:44:08.426Z,100780.00
2022-11-07T03:46:34.896Z,100780.41
2022-11-07T03:49:01.684Z,100785.66
2022-11-07T03:51:28.131Z,100796.06
2022-11-07T03:53:54.616Z,100802.09
2022-11-07T03:56:21.099Z,100795.03
2022-11-07T03:58:49.689Z,100786.72
2022-11-07T04:01:16.465Z,100790.50
2022-11-07T04:03:43.135Z,100784.91
2022-11-07T04:06:09.628Z,100790.91
2022-11-07T04:08:36.773Z,100787.47
2022-11-07T04:11:03.374Z,100786.06
2022-11-07T04:13:51.494Z,100785.28
2022-11-07T04:16:38.155Z,100790.50
2022-11-07T04:19:04.665Z,100801.78
2022-11-07T04:21:31.233Z,100793.53
2022-11-07T04:23:57.704Z,100786.41
2022-11-07T04:26:42.656Z,100792.41
2022-11-07T04:29:09.086Z,100777.81
2022-11-07T04:31:35.576Z,100788.34
2022-11-07T04:34:02.042Z,100792.03
2022-11-07T04:36:28.525Z,100792.03
2022-11-07T04:38:54.982Z,100792.78
2022-11-07T04:41:24.488Z,100786.47
2022-11-07T04:43:51.265Z,100787.94
2022-11-07T04:46:17.818Z,100788.34
2022-11-07T04:48:44.807Z,100799.56
2022-11-07T04:51:18.926Z,100795.81
2022-11-07T04:53:45.476Z,100795.09
2022-11-07T04:56:12.205Z,100792.41
2022-11-07T04:58:38.734Z,100791.72
2022-11-07T05:01:05.313Z,100791.31
2022-11-07T05:03:31.838Z,100789.09
2022-11-07T05:05:58.368Z,100791.34
2022-11-07T05:08:24.875Z,100783.13
2022-11-07T05:10:51.441Z,100791.28
2022-11-07T05:13:18.666Z,100793.91
2022-11-07T05:15:45.360Z,100795.47
2022-11-07T05:18:11.869Z,100804.81
2022-11-07T05:20:39.525Z,100798.13
2022-11-07T05:23:13.291Z,100800.00
2022-11-07T05:25:44.303Z,100804.81
2022-11-07T05:28:12.996Z,100804.41
2022-11-07T05:30:41.093Z,100802.59
2022-11-07T05:33:09.265Z,100796.22
2022-11-07T05:35:36.410Z,100799.63
2022-11-07T05:38:08.208Z,100783.91
2022-11-07T05:40:41.604Z,100788.75
2022-11-07T05:43:11.968Z,100795.88
2022-11-07T05:45:41.161Z,100788.31
2022-11-07T05:48:09.877Z,100794.34
2022-11-07T05:50:36.872Z,100804.44
2022-11-07T05:53:04.496Z,100796.56
2022-11-07T05:55:31.963Z,100801.81
2022-11-07T05:58:06.702Z,100804.38
2022-11-07T06:00:33.587Z,100800.28
2022-11-07T06:03:00.617Z,100807.03
2022-11-07T06:05:28.450Z,100798.06
2022-11-07T06:07:57.782Z,100806.28
2022-11-07T06:10:24.862Z,100804.81
2022-11-07T06:13:03.603Z,100809.31
2022-11-07T06:15:33.167Z,100813.44
2022-11-07T06:18:01.369Z,100814.56
2022-11-07T06:20:29.097Z,100814.94
2022-11-07T06:22:59.552Z,100816.44
2022-11-07T06:25:27.726Z,100816.78
2022-11-07T06:27:58.690Z,100815.25
2022-11-07T06:30:25.529Z,100817.13
2022-11-07T06:32:51.981Z,100816.03
2022-11-07T06:35:18.572Z,100815.97
2022-11-07T06:37:45.590Z,100828.00
2022-11-07T06:40:12.290Z,100820.94
2022-11-07T06:42:38.754Z,100825.06
2022-11-07T06:45:05.744Z,100829.53
2022-11-07T06:47:32.208Z,100823.56
2022-11-07T06:49:58.732Z,100835.16
2022-11-07T06:52:25.547Z,100833.25
2022-11-07T06:54:54.023Z,100830.63
2022-11-07T06:57:20.589Z,100831.78
2022-11-07T06:59:51.844Z,100835.16
2022-11-07T07:02:37.060Z,100840.38
2022-11-07T07:05:06.347Z,100843.78
2022-11-07T07:07:32.923Z,100847.53
2022-11-07T07:10:00.846Z,100845.28
2022-11-07T07:12:27.329Z,100847.22
2022-11-07T07:14:57.163Z,100846.78
2022-11-07T07:17:23.670Z,100846.03
2022-11-07T07:19:50.138Z,100849.78
2022-11-07T07:22:16.646Z,100850.91
2022-11-07T07:24:43.191Z,100855.09
2022-11-07T07:27:09.709Z,100860.31
2022-11-07T07:29:36.194Z,100864.25
2022-11-07T07:32:02.776Z,100863.56
2022-11-07T07:34:29.301Z,100864.31
2022-11-07T07:36:55.894Z,100868.06
2022-11-07T07:39:23.679Z,100878.59
2022-11-07T07:41:50.783Z,100868.84
2022-11-07T07:44:17.283Z,100871.09
2022-11-07T07:46:43.829Z,100880.50
2022-11-07T07:49:10.295Z,100889.13
2022-11-07T07:51:36.993Z,100886.88
2022-11-07T07:54:03.676Z,100894.38
2022-11-07T07:56:30.162Z,100892.88
2022-11-07T07:58:59.768Z,100896.63
2022-11-07T08:01:26.314Z,100894.00
2022-11-07T08:04:05.250Z,100894.00
2022-11-07T08:06:32.574Z,100896.25
2022-11-07T08:08:59.211Z,100906.38
2022-11-07T08:11:25.749Z,100900.38
2022-11-07T08:13:57.205Z,100904.09
2022-11-07T08:16:27.528Z,100904.81
2022-11-07T08:18:54.027Z,100896.09
2022-11-07T08:21:20.502Z,100906.75
2022-11-07T08:23:49.679Z,100901.53
2022-11-07T08:26:16.087Z,100913.03
2022-11-07T08:28:42.599Z,100910.34
2022-11-07T08:31:12.002Z,100916.06
2022-11-07T08:33:38.907Z,100918.47
2022-11-07T08:36:07.029Z,100924.94
2022-11-07T08:38:35.692Z,100928.78
2022-11-07T08:41:03.150Z,100935.63
2022-11-07T08:43:29.803Z,100942.44
2022-11-07T08:45:59.287Z,100945.78
2022-11-07T08:48:25.931Z,100957.44
2022-11-07T08:51:04.807Z,100948.78
2022-11-07T08:53:32.224Z,100955.94
2022-11-07T08:56:03.691Z,100945.41
2022-11-07T08:58:30.705Z,100952.19
2022-11-07T09:00:57.814Z,100958.53
2022-11-07T09:06:11.622Z,100960.84
2022-11-07T09:08:38.192Z,100944.25
2022-11-07T09:11:05.267Z,100958.53
2022-11-07T09:13:33.390Z,100961.59
2022-11-07T09:16:01.522Z,100961.22
2022-11-07T09:18:28.408Z,100968.00
2022-11-07T09:20:54.943Z,100977.75
2022-11-07T09:23:21.510Z,100969.09
2022-11-07T09:25:50.802Z,100977.38
2022-11-07T09:28:17.501Z,100976.25
2022-11-07T09:30:44.011Z,100978.88
2022-11-07T09:33:10.630Z,100972.88
2022-11-07T09:35:37.325Z,100975.13
2022-11-07T09:38:04.985Z,100979.25
2022-11-07T09:40:54.679Z,100980.38
2022-11-07T09:43:28.996Z,100983.00
2022-11-07T09:46:12.748Z,100982.63
2022-11-07T09:48:46.628Z,100977.75
2022-11-07T09:51:20.056Z,100981.88
2022-11-07T09:53:56.504Z,100984.50
2022-11-07T09:56:23.010Z,100985.63
2022-11-07T09:58:54.759Z,100989.00
2022-11-07T10:01:22.156Z,100986.38
2022-11-07T10:04:23.460Z,100989.41
2022-11-07T10:06:52.860Z,101002.16
2022-11-07T10:09:37.708Z,100996.91
2022-11-07T10:12:29.315Z,100996.16
2022-11-07T10:15:07.065Z,100998.03
2022-11-07T10:18:03.074Z,100997.28
2022-11-07T10:20:32.516Z,101004.44
2022-11-07T10:23:12.589Z,101002.91
2022-11-07T10:25:50.479Z,101007.44
2022-11-07T10:28:19.490Z,101012.31
2022-11-07T10:30:51.645Z,101020.97
2022-11-07T10:33:42.065Z,101021.34
2022-11-07T10:36:21.883Z,101017.59
2022-11-07T10:38:48.878Z,101016.44
2022-11-07T10:41:17.827Z,101013.44
2022-11-07T10:43:49.505Z,101020.59
2022-11-07T10:46:41.636Z,101010.78
2022-11-07T10:49:21.919Z,101022.81
2022-11-07T10:51:51.966Z,101014.84
2022-11-07T10:54:29.909Z,101024.22
2022-11-07T10:57:10.323Z,101025.44
2022-11-07T10:59:42.780Z,101019.75
2022-11-07T11:02:45.684Z,101026.53
2022-11-07T11:05:27.224Z,101025.78
2022-11-07T11:08:17.208Z,101022.44
2022-11-07T11:10:44.046Z,101026.59
2022-11-07T11:13:31.249Z,101019.44
2022-11-07T11:16:05.333Z,101015.34
2022-11-07T11:18:32.824Z,101016.09
2022-11-07T11:21:06.906Z,101002.91
2022-11-07T11:23:37.640Z,101016.47
2022-11-07T11:26:31.855Z,101013.44
2022-11-07T11:29:02.104Z,101014.53
2022-11-07T11:31:35.795Z,101013.06
2022-11-07T11:34:37.758Z,101008.91
2022-11-07T11:37:18.527Z,101010.41
2022-11-07T11:40:02.263Z,101008.16
2022-11-07T11:42:49.975Z,101002.84
2022-11-07T11:45:26.844Z,101005.88
2022-11-07T11:48:00.504Z,101000.97
2022-11-07T11:51:04.080Z,101011.50
2022-11-07T11:53:30.695Z,101001.00
2022-11-07T11:56:06.265Z,101007.00
2022-11-07T11:58:56.939Z,101009.28
2022-11-07T12:01:43.302Z,101016.03
2022-11-07T12:04:18.904Z,101014.16
2022-11-07T12:06:46.659Z,101007.03
2022-11-07T12:09:45.453Z,101014.56
2022-11-07T12:12:55.320Z,101011.19
2022-11-07T12:15:28.353Z,101013.03
2022-11-07T12:18:05.209Z,101013.03
2022-11-07T12:20:58.483Z,101011.56
2022-11-07T12:23:45.171Z,101018.34
2022-11-07T12:26:20.863Z,101009.28
2022-11-07T12:29:16.261Z,101011.94
2022-11-07T12:32:19.984Z,101016.84
2022-11-07T12:35:18.347Z,101017.56
2022-11-07T12:37:58.183Z,101001.41
2022-11-07T12:40:33.553Z,101006.66
2022-11-07T12:43:31.167Z,101000.63
2022-11-07T12:46:30.331Z,101004.75
2022-11-07T12:49:46.629Z,101007.00
2022-11-07T12:52:31.382Z,101009.97
2022-11-07T12:55:19.526Z,101013.03
2022-11-07T12:57:49.382Z,101003.63
2022-11-07T13:00:29.127Z,101004.75
2022-11-07T13:02:59.010Z,101006.28
2022-11-07T13:05:50.165Z,101003.28
2022-11-07T13:08:58.288Z,100998.41
2022-11-07T13:11:34.702Z,100995.75
2022-11-07T13:14:22.706Z,100998.78
2022-11-07T13:16:52.014Z,100995.81
2022-11-07T13:19:33.526Z,100996.16
2022-11-07T13:22:00.234Z,100992.03
2022-11-07T13:24:26.935Z,100990.53
2022-11-07T13:26:59.731Z,100985.28
2022-11-07T13:29:37.972Z,100984.53
2022-11-07T13:32:12.853Z,100989.78
2022-11-07T13:34:51.594Z,100989.03
2022-11-07T13:37:21.655Z,100989.03
2022-11-07T13:39:57.957Z,100993.91
2022-11-07T13:42:27.560Z,100993.16
2022-11-07T13:44:56.954Z,100983.41
2022-11-07T13:47:30.479Z,100980.75
2022-11-07T13:50:10.092Z,100989.41
2022-11-07T13:53:04.701Z,100987.88
2022-11-07T13:55:57.354Z,100986.78
2022-11-07T13:58:26.756Z,100986.78
2022-11-07T14:00:59.080Z,100984.53
2022-11-07T14:03:29.452Z,100993.16
2022-11-07T14:05:56.711Z,100990.16
2022-11-07T14:08:29.373Z,100988.66
2022-11-07T14:10:55.914Z,100995.41
2022-11-07T14:13:39.658Z,100988.28
2022-11-07T14:16:33.976Z,100984.13
2022-11-07T14:19:03.343Z,100983.38
2022-11-07T14:21:32.504Z,100984.53
2022-11-07T14:24:00.667Z,100988.28
2022-11-07T14:26:33.043Z,100989.00
2022-11-07T14:29:03.797Z,100981.50
2022-11-07T14:31:35.947Z,100985.25
2022-11-07T14:34:16.052Z,100988.28
2022-11-07T14:36:57.913Z,100988.66
2022-11-07T14:39:26.731Z,100990.53
2022-11-07T14:41:55.752Z,100983.75
2022-11-07T14:44:53.316Z,100986.41
2022-11-07T14:47:22.978Z,100984.53
2022-11-07T14:49:55.709Z,100986.03
2022-11-07T14:52:26.630Z,100985.28
2022-11-07T14:55:02.140Z,100987.16
2022-11-07T14:57:28.894Z,100989.41
2022-11-07T14:59:55.832Z,100987.53
2022-11-07T15:02:29.204Z,100990.56
2022-11-07T15:05:03.376Z,100993.53
2022-11-07T15:07:35.511Z,100985.66
2022-11-07T15:10:27.367Z,100995.41
2022-11-07T15:13:03.686Z,100993.16
2022-11-07T15:15:35.539Z,100992.41
2022-11-07T15:18:05.374Z,100991.28
2022-11-07T15:20:35.066Z,100991.28
2022-11-07T15:23:26.813Z,100984.13
2022-11-07T15:26:03.281Z,100992.00
2022-11-07T15:28:43.329Z,100996.53
2022-11-07T15:31:26.096Z,100999.91
2022-11-07T15:33:53.738Z,100993.53
2022-11-07T15:36:20.442Z,101000.66
2022-11-07T15:38:51.583Z,100990.53
2022-11-07T15:41:18.951Z,100992.00
2022-11-07T15:43:45.551Z,100989.38
2022-11-07T15:46:42.187Z,100995.03
2022-11-07T15:49:11.579Z,100993.50
2022-11-07T15:51:38.030Z,100990.50
2022-11-07T15:54:04.562Z,100989.78
2022-11-07T15:56:31.037Z,100991.25
2022-11-07T15:58:57.624Z,101000.66
2022-11-07T16:01:24.499Z,100999.50
2022-11-07T16:03:51.205Z,101007.41
2022-11-07T16:06:28.091Z,101003.66
2022-11-07T16:08:55.105Z,101001.41
2022-11-07T16:11:22.029Z,100998.38
2022-11-07T16:13:59.259Z,101010.78
2022-11-07T16:16:35.764Z,101005.53
2022-11-07T16:19:02.323Z,101004.00
2022-11-07T16:21:28.790Z,101008.50
2022-11-07T16:23:57.411Z,101000.63
2022-11-07T16:26:28.707Z,101001.75
2022-11-07T16:28:56.948Z,101004.75
2022-11-07T16:31:23.472Z,101007.34
2022-11-07T16:33:49.999Z,101005.84
2022-11-07T16:36:25.392Z,101001.69
2022-11-07T16:38:55.185Z,101005.44
2022-11-07T16:41:22.706Z,101006.22
2022-11-07T16:43:49.415Z,101000.59
2022-11-07T16:46:18.278Z,101002.88
2022-11-07T16:48:46.886Z,101000.63
2022-11-07T16:51:16.019Z,101002.88
2022-11-07T16:53:43.378Z,101004.75
2022-11-07T16:56:14.972Z,101006.97
2022-11-07T16:58:42.212Z,101011.53
2022-11-07T17:01:08.805Z,101008.13
2022-11-07T17:03:35.285Z,101012.63
2022-11-07T17:06:03.904Z,101000.63
2022-11-07T17:08:39.410Z,101007.38
2022-11-07T17:11:09.458Z,101005.13
2022-11-07T17:13:38.108Z,100999.88
2022-11-07T17:16:13.285Z,101001.00
2022-11-07T17:18:39.762Z,101002.13
2022-11-07T17:21:07.120Z,100999.13
2022-11-07T17:23:42.321Z,100998.75
2022-11-07T17:26:09.932Z,101009.28
2022-11-07T17:28:36.437Z,101001.75
2022-11-07T17:31:03.015Z,101008.16
2022-11-07T17:33:29.686Z,101011.13
2022-11-07T17:35:58.954Z,101002.88
2022-11-07T17:38:25.787Z,101012.25
2022-11-07T17:40:56.521Z,101004.03
2022-11-07T17:43:23.452Z,101013.44
2022-11-07T17:45:50.145Z,101009.28
2022-11-07T17:48:17.044Z,101006.28
2022-11-07T17:50:43.815Z,101011.16
2022-11-07T17:53:10.581Z,101010.03
2022-11-07T17:55:37.138Z,101013.00
2022-11-07T17:58:03.661Z,101013.41
2022-11-07T18:00:30.255Z,101009.25
2022-11-07T18:02:56.891Z,101017.50
2022-11-07T18:05:31.766Z,101019.78
2022-11-07T18:07:59.498Z,101022.41
2022-11-07T18:10:26.046Z,101022.44
2022-11-07T18:12:54.702Z,101017.50
2022-11-07T18:15:21.372Z,101011.16
2022-11-07T18:17:51.157Z,101012.66
2022-11-07T18:20:19.964Z,101014.13
2022-11-07T18:22:49.903Z,101016.06
2022-11-07T18:25:17.806Z,101013.41
2022-11-07T18:27:44.777Z,101023.91
2022-11-07T18:30:17.107Z,101022.03
2022-11-07T18:32:45.790Z,101018.28
2022-11-07T18:35:12.436Z,101019.03
2022-11-07T18:37:42.094Z,101016.00
2022-11-07T18:40:09.820Z,101022.78
2022-11-07T18:42:43.883Z,101016.00
2022-11-07T18:45:10.970Z,101013.72
2022-11-07T18:47:37.805Z,101012.56
2022-11-07T18:50:05.347Z,101009.94
2022-11-07T18:52:33.076Z,101009.59
2022-11-07T18:55:02.179Z,101007.69
2022-11-07T18:57:28.752Z,101021.22
2022-11-07T18:59:58.017Z,101009.59
2022-11-07T19:02:33.780Z,101020.13
2022-11-07T19:05:03.454Z,101024.25
2022-11-07T19:07:30.111Z,101018.25
2022-11-07T19:10:49.748Z,101020.50
2022-11-07T19:13:22.004Z,101017.88
2022-11-07T19:15:50.890Z,101013.34
2022-11-07T19:18:18.374Z,101021.28
2022-11-07T19:20:46.275Z,101018.28
2022-11-07T19:23:13.687Z,101016.03
2022-11-07T19:25:43.708Z,101020.94
2022-11-07T19:28:19.041Z,101028.81
2022-11-07T19:30:48.251Z,101023.56
2022-11-07T19:33:16.396Z,101009.66
2022-11-07T19:35:43.390Z,101018.28
2022-11-07T19:38:14.440Z,101020.16
2022-11-07T19:40:42.536Z,101019.44
2022-11-07T19:43:10.495Z,101017.59
2022-11-07T19:45:41.600Z,101013.03
2022-11-07T19:48:13.257Z,101019.03
2022-11-07T19:50:44.292Z,101017.16
2022-11-07T19:53:11.024Z,101011.50
2022-11-07T19:55:38.221Z,101016.38
2022-11-07T19:58:05.970Z,101026.19
2022-11-07T20:00:32.777Z,101015.28
2022-11-07T20:02:59.385Z,101022.00
2022-11-07T20:05:27.482Z,101019.03
2022-11-07T20:08:02.127Z,101018.25
2022-11-07T20:10:32.039Z,101022.78
2022-11-07T20:13:01.688Z,101020.13
2022-11-07T20:15:29.484Z,101025.06
2022-11-07T20:17:56.227Z,101021.66
2022-11-07T20:20:26.153Z,101026.53
2022-11-07T20:22:54.864Z,101020.56
2022-11-07T20:25:21.703Z,101027.28
2022-11-07T20:27:53.021Z,101030.28
2022-11-07T20:30:19.737Z,101030.28
2022-11-07T20:32:46.604Z,101032.50
2022-11-07T20:35:15.705Z,101027.25
2022-11-07T20:37:42.283Z,101031.03
2022-11-07T20:40:11.589Z,101036.63
2022-11-07T20:42:38.275Z,101035.91
2022-11-07T20:45:05.232Z,101034.44
2022-11-07T20:47:34.279Z,101036.69
2022-11-07T20:50:00.851Z,101042.28
2022-11-07T20:52:27.764Z,101046.06
2022-11-07T20:54:54.434Z,101033.25
2022-11-07T20:57:21.919Z,101039.94
2022-11-07T20:59:50.012Z,101041.03
2022-11-07T21:02:20.282Z,101041.34
2022-11-07T21:05:16.207Z,101042.09
2022-11-07T21:07:37.135Z,101048.34
2022-11-07T21:10:05.831Z,101047.59
2022-11-07T21:12:33.873Z,101046.09
2022-11-07T21:15:00.611Z,101039.41
2022-11-07T21:17:27.281Z,101054.03
2022-11-07T21:20:00.249Z,101034.09
2022-11-07T21:22:29.547Z,101036.78
2022-11-07T21:24:56.590Z,101034.84
2022-11-07T21:27:23.227Z,101042.66
2022-11-07T21:29:49.765Z,101046.78
2022-11-07T21:32:16.258Z,101047.44
2022-11-07T21:34:42.840Z,101030.63
2022-11-07T21:37:09.499Z,101043.75
2022-11-07T21:39:36.232Z,101032.22
2022-11-07T21:42:02.736Z,101036.66
2022-11-07T21:44:29.243Z,101029.16
2022-11-07T21:46:55.752Z,101030.69
2022-11-07T21:49:22.315Z,101034.78
2022-11-07T21:51:51.927Z,101025.09
2022-11-07T21:54:18.548Z,101021.72
2022-11-07T21:56:45.044Z,101031.41
2022-11-07T21:59:12.207Z,101022.00
2022-11-07T22:01:40.108Z,101019.41
2022-11-07T22:04:10.884Z,101025.44
2022-11-07T22:06:43.920Z,101018.69
2022-11-07T22:09:14.093Z,101020.25
2022-11-07T22:11:40.957Z,101016.06
2022-11-07T22:14:07.790Z,101014.19
2022-11-07T22:16:34.501Z,101012.25
2022-11-07T22:19:01.261Z,101014.16
2022-11-07T22:21:27.889Z,101008.53
2022-11-07T22:23:55.726Z,101017.88
2022-11-07T22:26:24.727Z,101012.31
2022-11-07T22:28:54.088Z,101008.16
2022-11-07T22:31:23.076Z,101020.81
2022-11-07T22:33:51.175Z,101009.56
2022-11-07T22:36:18.414Z,101009.25
2022-11-07T22:38:45.063Z,101008.59
2022-11-07T22:41:16.028Z,101017.09
2022-11-07T22:43:42.838Z,101019.69
2022-11-07T22:46:13.318Z,101013.31
2022-11-07T22:48:41.124Z,100999.09
2022-11-07T22:51:10.121Z,101003.28
2022-11-07T22:53:38.840Z,101002.88
2022-11-07T22:56:17.392Z,100996.59
2022-11-07T22:58:45.186Z,101003.66
2022-11-07T23:01:32.389Z,100999.16
2022-11-07T23:03:59.319Z,100985.59
2022-11-07T23:06:27.975Z,100990.09
2022-11-07T23:08:57.803Z,100995.78
2022-11-07T23:14:17.226Z,100986.31
2022-11-07T23:16:47.933Z,100987.75
2022-11-07T23:19:16.174Z,100976.53
2022-11-07T23:21:43.221Z,100974.63
2022-11-07T23:24:10.262Z,100970.06
2022-11-07T23:26:36.955Z,100969.03
2022-11-07T23:29:15.375Z,100977.31
2022-11-07T23:31:49.706Z,100971.72
2022-11-07T23:34:17.320Z,100971.31
2022-11-07T23:36:44.835Z,100964.56
2022-11-07T23:39:19.330Z,100967.22
2022-11-07T23:41:46.276Z,100968.66
2022-11-07T23:44:13.572Z,100960.03
2022-11-07T23:46:58.657Z,100963.78
2022-11-07T23:49:57.141Z,100961.53
2022-11-07T23:52:23.628Z,100957.38
2022-11-07T23:55:28.540Z,100956.56
2022-11-07T23:58:13.884Z,100956.28
